Portada
METAR-TAF:

METAR-TAF

Aeroports :

Luang Prabang, Laos

latitud: 19-53N, longitud: 102-08E, altitud: 305 m

Observació

L'informe es va fer fa 3 hores i 1 minuts, a les 01:00 UTC
Vent calma
Temperatura 18°C
Humitat 83%
Pressió 1012 hPa
Visibilitat: 4000 m
Núvols disperses a una alçada de 1000 ft
Cel ennuvolat a una alçada de 6000 ft
boirina

METAR: VLLB 010100Z 00000KT 4000 BR SCT010 BKN060 18/15 Q1012 NOSIG

Hora: 11:01 (04:01 UTC)

Pronòstic

L'informe es va fer fa 5 hores i 1 minuts, a les 23:00 UTC
Pronòstic vàlid del 01 a les 00 UTC al 01 a les 24 UTC
Vent 4 kt del Nord-Oest
Visibilitat 10 km o més
Escasses núvols a una alçada de 2000 ft
Núvols disperses a una alçada de 6000 ft

TAF: VLLB 282300Z 0100/0124 32004KT 9999 FEW020 SCT060

Observacions i pronòstics meteorològics de més de 4000 aeroports (METAR i TAF).

Les estacions disponibles són els punts grocs i vermells al mapa.

Posi el ratolí al punt desitjat per veure el nom de l'estació.

Feu clic per veure les observacions i els pronòstics meteorològics.

Per canviar el mapa: feu clic els botons verds amb una creu de color negre per apropar; al botó verd amb un guió per allunyar la imatge; o en les fletxes verdes per a mapes adjacents.


METAR-TAF: